Alvwood, Minnesota
Current Conditions -  °F | °C
As of 9:14 PM on Tuesday 21 Oct 2014 (Local Time) from KVWU Reporting Station
Clear Clear  
Wind Chill: 43°   Ceiling: Unl
Heat Index: 48°   Visibility: 10mi
Dew Point: 37°   Wind: 12mph
Humidity: 66%   Direction: 130°SE
Pressure: 30.03"   Gusts: 20mph
Location:  47.7306°N, 94.3762°W
Report Text: KVWU 220214Z AUTO 13010G17KT 10SM CLR 09/03 A3003 RMK AO2
Loading
Personal Weather Stations






























Interactive Weather Map
Tropical Storm Tracking
New forecast layout! Learn more

10-Day Weather Forecast

Advertisements
Track Severe Weather on mobile